sensor_id;sensor_type;location;lat;lon;timestamp;pressure;altitude;pressure_sealevel;temperature;humidity
76201;BME280;64981;52.930;9.266;2024-03-02T00:00:26;100107.78;;;8.20;69.94
76201;BME280;64981;52.930;9.266;2024-03-02T00:02:52;100108.75;;;8.19;70.11
76201;BME280;64981;52.930;9.266;2024-03-02T00:05:20;100105.81;;;8.22;69.63
76201;BME280;64981;52.930;9.266;2024-03-02T00:07:56;100104.66;;;8.16;69.94
76201;BME280;64981;52.930;9.266;2024-03-02T00:10:25;100097.75;;;8.15;69.80
76201;BME280;64981;52.930;9.266;2024-03-02T00:12:55;100107.94;;;8.18;69.57
76201;BME280;64981;52.930;9.266;2024-03-02T00:15:37;100105.47;;;8.17;69.97
76201;BME280;64981;52.930;9.266;2024-03-02T00:18:05;100100.72;;;8.21;69.64
76201;BME280;64981;52.930;9.266;2024-03-02T00:20:31;100108.47;;;8.30;69.03
76201;BME280;64981;52.930;9.266;2024-03-02T00:23:06;100100.69;;;8.04;70.01
76201;BME280;64981;52.930;9.266;2024-03-02T00:25:49;100109.59;;;8.11;70.00
76201;BME280;64981;52.930;9.266;2024-03-02T00:28:24;100096.72;;;7.92;70.95
76201;BME280;64981;52.930;9.266;2024-03-02T00:31:04;100106.09;;;8.03;70.56
76201;BME280;64981;52.930;9.266;2024-03-02T00:33:33;100106.59;;;8.06;70.20
76201;BME280;64981;52.930;9.266;2024-03-02T00:35:59;100104.94;;;8.05;70.33
76201;BME280;64981;52.930;9.266;2024-03-02T00:38:26;100115.78;;;8.02;70.42
76201;BME280;64981;52.930;9.266;2024-03-02T00:40:53;100105.91;;;7.96;70.62
76201;BME280;64981;52.930;9.266;2024-03-02T00:46:17;100101.63;;;7.87;70.84
76201;BME280;64981;52.930;9.266;2024-03-02T00:48:52;100113.16;;;7.94;70.75
76201;BME280;64981;52.930;9.266;2024-03-02T00:51:21;100099.47;;;7.83;70.60
76201;BME280;64981;52.930;9.266;2024-03-02T00:53:47;100099.16;;;7.86;70.41
76201;BME280;64981;52.930;9.266;2024-03-02T00:56:13;100103.78;;;7.92;70.33
76201;BME280;64981;52.930;9.266;2024-03-02T00:58:39;100108.53;;;7.88;70.86
76201;BME280;64981;52.930;9.266;2024-03-02T01:01:05;100113.78;;;7.88;70.99
76201;BME280;64981;52.930;9.266;2024-03-02T01:03:33;100107.69;;;7.88;70.80
76201;BME280;64981;52.930;9.266;2024-03-02T01:05:59;100108.22;;;7.91;70.81
76201;BME280;64981;52.930;9.266;2024-03-02T01:08:25;100107.56;;;7.89;70.72
76201;BME280;64981;52.930;9.266;2024-03-02T01:10:51;100105.72;;;7.90;71.07
76201;BME280;64981;52.930;9.266;2024-03-02T01:13:17;100101.63;;;7.87;70.97
76201;BME280;64981;52.930;9.266;2024-03-02T01:15:43;100100.78;;;7.79;70.97
76201;BME280;64981;52.930;9.266;2024-03-02T01:18:09;100094.19;;;7.75;71.03
76201;BME280;64981;52.930;9.266;2024-03-02T01:20:35;100107.81;;;7.70;71.47
76201;BME280;64981;52.930;9.266;2024-03-02T01:23:00;100090.25;;;7.71;71.26
76201;BME280;64981;52.930;9.266;2024-03-02T01:25:26;100090.41;;;7.69;71.10
76201;BME280;64981;52.930;9.266;2024-03-02T01:27:52;100097.91;;;7.56;71.63
76201;BME280;64981;52.930;9.266;2024-03-02T01:30:17;100099.63;;;7.73;71.47
76201;BME280;64981;52.930;9.266;2024-03-02T01:32:43;100096.47;;;7.70;71.32
76201;BME280;64981;52.930;9.266;2024-03-02T01:35:08;100094.38;;;7.81;71.01
76201;BME280;64981;52.930;9.266;2024-03-02T01:37:34;100086.28;;;7.67;71.09
76201;BME280;64981;52.930;9.266;2024-03-02T01:40:00;100090.06;;;7.72;71.50
76201;BME280;64981;52.930;9.266;2024-03-02T01:42:26;100086.47;;;7.81;70.98
76201;BME280;64981;52.930;9.266;2024-03-02T01:44:51;100076.75;;;7.65;71.56
76201;BME280;64981;52.930;9.266;2024-03-02T01:47:17;100083.34;;;7.78;71.20
76201;BME280;64981;52.930;9.266;2024-03-02T01:49:43;100083.34;;;7.70;71.53
76201;BME280;64981;52.930;9.266;2024-03-02T01:52:09;100084.69;;;7.74;71.19
76201;BME280;64981;52.930;9.266;2024-03-02T01:54:34;100087.63;;;7.71;71.32
76201;BME280;64981;52.930;9.266;2024-03-02T01:57:00;100083.47;;;7.68;71.51
76201;BME280;64981;52.930;9.266;2024-03-02T01:59:27;100080.97;;;7.58;72.06
76201;BME280;64981;52.930;9.266;2024-03-02T02:01:52;100078.31;;;7.42;72.49
76201;BME280;64981;52.930;9.266;2024-03-02T02:04:18;100074.94;;;7.58;71.75
76201;BME280;64981;52.930;9.266;2024-03-02T02:06:46;100059.41;;;7.39;72.60
76201;BME280;64981;52.930;9.266;2024-03-02T02:09:12;100068.16;;;7.47;72.24
76201;BME280;64981;52.930;9.266;2024-03-02T02:11:38;100069.31;;;7.53;72.13
76201;BME280;64981;52.930;9.266;2024-03-02T02:14:04;100065.66;;;7.46;72.49
76201;BME280;64981;52.930;9.266;2024-03-02T02:16:29;100065.84;;;7.52;72.25
76201;BME280;64981;52.930;9.266;2024-03-02T02:18:55;100056.69;;;7.56;72.19
76201;BME280;64981;52.930;9.266;2024-03-02T02:21:24;100059.59;;;7.45;72.56
76201;BME280;64981;52.930;9.266;2024-03-02T02:23:49;100054.53;;;7.52;72.40
76201;BME280;64981;52.930;9.266;2024-03-02T02:26:15;100057.13;;;7.44;72.61
76201;BME280;64981;52.930;9.266;2024-03-02T02:28:41;100050.06;;;7.44;72.40
76201;BME280;64981;52.930;9.266;2024-03-02T02:31:13;100054.66;;;7.42;72.71
76201;BME280;64981;52.930;9.266;2024-03-02T02:33:40;100045.88;;;7.26;72.99
76201;BME280;64981;52.930;9.266;2024-03-02T02:36:06;100050.84;;;7.37;72.97
76201;BME280;64981;52.930;9.266;2024-03-02T02:38:37;100028.66;;;7.31;72.80
76201;BME280;64981;52.930;9.266;2024-03-02T02:41:04;100044.09;;;7.26;72.79
76201;BME280;64981;52.930;9.266;2024-03-02T02:43:30;100039.53;;;7.36;72.79
76201;BME280;64981;52.930;9.266;2024-03-02T02:45:55;100044.00;;;7.44;72.44
76201;BME280;64981;52.930;9.266;2024-03-02T02:48:21;100037.34;;;7.24;72.82
76201;BME280;64981;52.930;9.266;2024-03-02T02:50:46;100036.13;;;7.10;73.42
76201;BME280;64981;52.930;9.266;2024-03-02T02:53:12;100031.94;;;7.25;72.65
76201;BME280;64981;52.930;9.266;2024-03-02T02:55:39;100028.00;;;7.29;72.86
76201;BME280;64981;52.930;9.266;2024-03-02T02:58:06;100033.28;;;7.29;72.39
76201;BME280;64981;52.930;9.266;2024-03-02T03:00:32;100036.00;;;7.20;72.82
76201;BME280;64981;52.930;9.266;2024-03-02T03:02:58;100037.19;;;7.25;72.75
76201;BME280;64981;52.930;9.266;2024-03-02T03:05:23;100029.22;;;7.09;73.05
76201;BME280;64981;52.930;9.266;2024-03-02T03:07:49;100036.34;;;7.25;72.83
76201;BME280;64981;52.930;9.266;2024-03-02T03:10:16;100039.66;;;7.27;72.59
76201;BME280;64981;52.930;9.266;2024-03-02T03:12:42;100039.16;;;7.23;72.55
76201;BME280;64981;52.930;9.266;2024-03-02T03:15:09;100037.03;;;7.27;72.52
76201;BME280;64981;52.930;9.266;2024-03-02T03:17:36;100031.06;;;7.17;72.83
76201;BME280;64981;52.930;9.266;2024-03-02T03:20:03;100022.06;;;7.19;72.68
76201;BME280;64981;52.930;9.266;2024-03-02T03:22:30;100034.84;;;7.14;72.64
76201;BME280;64981;52.930;9.266;2024-03-02T03:24:56;100025.81;;;7.17;72.46
76201;BME280;64981;52.930;9.266;2024-03-02T03:27:22;100027.75;;;7.06;73.11
76201;BME280;64981;52.930;9.266;2024-03-02T03:29:48;100022.91;;;7.28;72.17
76201;BME280;64981;52.930;9.266;2024-03-02T03:32:14;100026.47;;;7.19;72.36
76201;BME280;64981;52.930;9.266;2024-03-02T03:34:39;100020.09;;;7.21;72.38
76201;BME280;64981;52.930;9.266;2024-03-02T03:37:05;100011.44;;;7.29;72.08
76201;BME280;64981;52.930;9.266;2024-03-02T03:39:31;100022.06;;;7.19;72.24
76201;BME280;64981;52.930;9.266;2024-03-02T03:41:57;100007.78;;;7.22;72.11
76201;BME280;64981;52.930;9.266;2024-03-02T03:44:22;100019.13;;;7.22;72.15
76201;BME280;64981;52.930;9.266;2024-03-02T03:46:48;100013.09;;;7.30;71.71
76201;BME280;64981;52.930;9.266;2024-03-02T03:49:13;100008.84;;;7.03;72.20
76201;BME280;64981;52.930;9.266;2024-03-02T03:51:39;100019.53;;;7.09;71.98
76201;BME280;64981;52.930;9.266;2024-03-02T03:54:05;100019.41;;;7.11;72.27
76201;BME280;64981;52.930;9.266;2024-03-02T03:56:30;100024.78;;;7.01;72.39
76201;BME280;64981;52.930;9.266;2024-03-02T03:58:56;100020.53;;;7.08;72.37
76201;BME280;64981;52.930;9.266;2024-03-02T04:01:21;100018.41;;;7.12;72.28
76201;BME280;64981;52.930;9.266;2024-03-02T04:03:48;100011.84;;;7.08;72.27
76201;BME280;64981;52.930;9.266;2024-03-02T04:06:13;100019.97;;;7.31;71.53
76201;BME280;64981;52.930;9.266;2024-03-02T04:08:41;100010.38;;;7.14;71.78
76201;BME280;64981;52.930;9.266;2024-03-02T04:11:06;100008.63;;;6.88;72.72
76201;BME280;64981;52.930;9.266;2024-03-02T04:13:33;100017.22;;;6.98;72.79
76201;BME280;64981;52.930;9.266;2024-03-02T04:15:59;100018.69;;;7.01;72.80
76201;BME280;64981;52.930;9.266;2024-03-02T04:18:24;100019.00;;;6.98;73.00
76201;BME280;64981;52.930;9.266;2024-03-02T04:20:50;100025.53;;;6.94;73.19
76201;BME280;64981;52.930;9.266;2024-03-02T04:23:16;100022.88;;;6.86;73.41
76201;BME280;64981;52.930;9.266;2024-03-02T04:25:41;100016.63;;;6.87;73.71
76201;BME280;64981;52.930;9.266;2024-03-02T04:28:07;100027.28;;;6.59;74.81
76201;BME280;64981;52.930;9.266;2024-03-02T04:30:32;100021.63;;;6.72;74.34
76201;BME280;64981;52.930;9.266;2024-03-02T04:32:58;100025.34;;;6.87;73.62
76201;BME280;64981;52.930;9.266;2024-03-02T04:35:24;100024.00;;;6.83;73.81
76201;BME280;64981;52.930;9.266;2024-03-02T04:37:50;100025.19;;;6.89;73.88
76201;BME280;64981;52.930;9.266;2024-03-02T04:40:16;100013.81;;;6.54;74.63
76201;BME280;64981;52.930;9.266;2024-03-02T04:42:41;100023.28;;;6.73;74.26
76201;BME280;64981;52.930;9.266;2024-03-02T04:45:07;100022.75;;;6.70;74.62
76201;BME280;64981;52.930;9.266;2024-03-02T04:47:33;100014.72;;;6.71;74.48
76201;BME280;64981;52.930;9.266;2024-03-02T04:49:58;100013.84;;;6.63;74.64
76201;BME280;64981;52.930;9.266;2024-03-02T04:52:24;100020.44;;;6.67;74.86
76201;BME280;64981;52.930;9.266;2024-03-02T04:54:49;100017.03;;;6.74;74.47
76201;BME280;64981;52.930;9.266;2024-03-02T04:57:25;100014.31;;;6.58;75.27
76201;BME280;64981;52.930;9.266;2024-03-02T04:59:51;100005.72;;;6.48;75.37
76201;BME280;64981;52.930;9.266;2024-03-02T05:02:16;100004.72;;;6.49;75.64
76201;BME280;64981;52.930;9.266;2024-03-02T05:04:42;99988.31;;;6.47;75.45
76201;BME280;64981;52.930;9.266;2024-03-02T05:07:07;99997.78;;;6.40;76.06
76201;BME280;64981;52.930;9.266;2024-03-02T05:09:33;100008.56;;;6.37;76.17
76201;BME280;64981;52.930;9.266;2024-03-02T05:11:58;100002.28;;;6.47;75.78
76201;BME280;64981;52.930;9.266;2024-03-02T05:14:34;100004.06;;;6.47;75.68
76201;BME280;64981;52.930;9.266;2024-03-02T05:16:59;100023.91;;;6.49;75.78
76201;BME280;64981;52.930;9.266;2024-03-02T05:19:25;100029.34;;;6.48;75.82
76201;BME280;64981;52.930;9.266;2024-03-02T05:21:51;100022.47;;;6.55;75.54
76201;BME280;64981;52.930;9.266;2024-03-02T05:24:17;100035.97;;;6.60;75.20
76201;BME280;64981;52.930;9.266;2024-03-02T05:26:42;100037.31;;;6.64;75.43
76201;BME280;64981;52.930;9.266;2024-03-02T05:29:08;100027.59;;;6.56;75.37
76201;BME280;64981;52.930;9.266;2024-03-02T05:31:34;100032.56;;;6.42;75.81
76201;BME280;64981;52.930;9.266;2024-03-02T05:34:00;100029.13;;;6.41;75.75
76201;BME280;64981;52.930;9.266;2024-03-02T05:36:25;100036.38;;;6.47;75.76
76201;BME280;64981;52.930;9.266;2024-03-02T05:38:51;100037.03;;;6.49;75.57
76201;BME280;64981;52.930;9.266;2024-03-02T05:41:17;100049.09;;;6.60;75.49
76201;BME280;64981;52.930;9.266;2024-03-02T05:43:43;100047.50;;;6.67;75.11
76201;BME280;64981;52.930;9.266;2024-03-02T05:46:08;100038.72;;;6.58;75.18
76201;BME280;64981;52.930;9.266;2024-03-02T05:48:34;100043.97;;;6.58;74.88
76201;BME280;64981;52.930;9.266;2024-03-02T05:50:59;100037.66;;;6.43;75.67
76201;BME280;64981;52.930;9.266;2024-03-02T05:53:25;100043.19;;;6.40;75.73
76201;BME280;64981;52.930;9.266;2024-03-02T05:55:51;100044.03;;;6.41;75.75
76201;BME280;64981;52.930;9.266;2024-03-02T05:58:20;100043.94;;;6.50;75.48
76201;BME280;64981;52.930;9.266;2024-03-02T06:00:53;100046.38;;;6.52;75.33
76201;BME280;64981;52.930;9.266;2024-03-02T06:03:19;100048.00;;;6.45;75.36
76201;BME280;64981;52.930;9.266;2024-03-02T06:05:45;100043.41;;;6.47;75.25
76201;BME280;64981;52.930;9.266;2024-03-02T06:08:11;100051.81;;;6.50;75.43
76201;BME280;64981;52.930;9.266;2024-03-02T06:10:36;100045.81;;;6.58;75.26
76201;BME280;64981;52.930;9.266;2024-03-02T06:13:02;100048.44;;;6.58;75.14
76201;BME280;64981;52.930;9.266;2024-03-02T06:15:27;100047.66;;;6.66;74.76
76201;BME280;64981;52.930;9.266;2024-03-02T06:17:53;100049.22;;;6.58;75.07
76201;BME280;64981;52.930;9.266;2024-03-02T06:20:19;100054.03;;;6.63;74.94
76201;BME280;64981;52.930;9.266;2024-03-02T06:22:44;100040.91;;;6.63;74.32
76201;BME280;64981;52.930;9.266;2024-03-02T06:25:10;100068.03;;;6.72;74.88
76201;BME280;64981;52.930;9.266;2024-03-02T06:27:35;100062.13;;;6.70;74.89
76201;BME280;64981;52.930;9.266;2024-03-02T06:30:01;100061.56;;;6.58;75.14
76201;BME280;64981;52.930;9.266;2024-03-02T06:32:27;100066.88;;;6.74;74.84
76201;BME280;64981;52.930;9.266;2024-03-02T06:34:52;100074.16;;;6.54;75.20
76201;BME280;64981;52.930;9.266;2024-03-02T06:37:18;100080.56;;;6.60;75.38
76201;BME280;64981;52.930;9.266;2024-03-02T06:39:44;100079.03;;;6.75;75.22
76201;BME280;64981;52.930;9.266;2024-03-02T06:42:09;100082.25;;;6.87;74.54
76201;BME280;64981;52.930;9.266;2024-03-02T06:44:35;100082.63;;;6.92;74.28
76201;BME280;64981;52.930;9.266;2024-03-02T06:47:00;100086.47;;;7.05;73.72
76201;BME280;64981;52.930;9.266;2024-03-02T06:49:26;100089.72;;;6.99;73.77
76201;BME280;64981;52.930;9.266;2024-03-02T06:51:51;100090.66;;;7.16;73.49
76201;BME280;64981;52.930;9.266;2024-03-02T06:54:17;100087.44;;;7.30;73.01
76201;BME280;64981;52.930;9.266;2024-03-02T06:56:43;100093.66;;;7.55;72.64
76201;BME280;64981;52.930;9.266;2024-03-02T06:59:08;100090.56;;;7.68;71.78
76201;BME280;64981;52.930;9.266;2024-03-02T07:01:34;100094.69;;;7.70;71.32
76201;BME280;64981;52.930;9.266;2024-03-02T07:04:00;100091.13;;;7.95;70.87
76201;BME280;64981;52.930;9.266;2024-03-02T07:06:25;100091.66;;;7.99;70.99
76201;BME280;64981;52.930;9.266;2024-03-02T07:08:51;100089.53;;;8.18;70.18
76201;BME280;64981;52.930;9.266;2024-03-02T07:11:16;100088.38;;;8.37;69.55
76201;BME280;64981;52.930;9.266;2024-03-02T07:13:42;100075.59;;;8.58;68.70
76201;BME280;64981;52.930;9.266;2024-03-02T07:16:07;100082.50;;;8.76;68.13
76201;BME280;64981;52.930;9.266;2024-03-02T07:18:45;100085.41;;;9.05;66.98
76201;BME280;64981;52.930;9.266;2024-03-02T07:21:16;100093.63;;;9.10;67.13
76201;BME280;64981;52.930;9.266;2024-03-02T07:23:42;100091.59;;;9.36;66.69
76201;BME280;64981;52.930;9.266;2024-03-02T07:26:07;100099.06;;;9.16;66.72
76201;BME280;64981;52.930;9.266;2024-03-02T07:28:33;100098.03;;;9.25;67.04
76201;BME280;64981;52.930;9.266;2024-03-02T07:31:06;100088.75;;;9.46;65.87
76201;BME280;64981;52.930;9.266;2024-03-02T07:33:33;100091.91;;;9.80;65.18
76201;BME280;64981;52.930;9.266;2024-03-02T07:35:59;100100.28;;;9.84;64.75
76201;BME280;64981;52.930;9.266;2024-03-02T07:38:27;100106.25;;;9.77;65.03
76201;BME280;64981;52.930;9.266;2024-03-02T07:40:53;100108.44;;;9.97;64.66
76201;BME280;64981;52.930;9.266;2024-03-02T07:43:19;100096.06;;;9.97;64.30
76201;BME280;64981;52.930;9.266;2024-03-02T07:45:46;100099.41;;;9.91;64.73
76201;BME280;64981;52.930;9.266;2024-03-02T07:48:12;100116.31;;;9.74;64.95
76201;BME280;64981;52.930;9.266;2024-03-02T07:50:37;100117.16;;;10.05;64.39
76201;BME280;64981;52.930;9.266;2024-03-02T07:53:05;100115.06;;;9.93;64.79
76201;BME280;64981;52.930;9.266;2024-03-02T07:55:31;100110.72;;;10.00;64.39
76201;BME280;64981;52.930;9.266;2024-03-02T07:57:57;100115.63;;;10.42;62.98
76201;BME280;64981;52.930;9.266;2024-03-02T08:00:23;100115.91;;;10.47;62.66
76201;BME280;64981;52.930;9.266;2024-03-02T08:02:51;100122.91;;;10.40;62.29
76201;BME280;64981;52.930;9.266;2024-03-02T08:05:17;100123.06;;;10.61;61.56
76201;BME280;64981;52.930;9.266;2024-03-02T08:07:45;100121.56;;;10.81;61.50
76201;BME280;64981;52.930;9.266;2024-03-02T08:10:11;100118.31;;;10.94;60.92
76201;BME280;64981;52.930;9.266;2024-03-02T08:12:37;100121.22;;;10.84;61.02
76201;BME280;64981;52.930;9.266;2024-03-02T08:15:03;100128.50;;;10.82;60.51
76201;BME280;64981;52.930;9.266;2024-03-02T08:17:30;100122.97;;;10.69;61.48
76201;BME280;64981;52.930;9.266;2024-03-02T08:19:56;100125.34;;;11.01;60.70
76201;BME280;64981;52.930;9.266;2024-03-02T08:22:22;100124.88;;;10.83;61.49
76201;BME280;64981;52.930;9.266;2024-03-02T08:24:48;100117.47;;;10.78;61.26
76201;BME280;64981;52.930;9.266;2024-03-02T08:27:14;100116.63;;;11.15;60.72
76201;BME280;64981;52.930;9.266;2024-03-02T08:29:40;100127.47;;;11.20;60.48
76201;BME280;64981;52.930;9.266;2024-03-02T08:32:06;100127.31;;;11.36;59.83
76201;BME280;64981;52.930;9.266;2024-03-02T08:34:32;100129.22;;;11.28;59.55
76201;BME280;64981;52.930;9.266;2024-03-02T08:36:59;100124.78;;;10.91;60.26
76201;BME280;64981;52.930;9.266;2024-03-02T08:39:25;100128.41;;;11.27;59.71
76201;BME280;64981;52.930;9.266;2024-03-02T08:41:50;100125.63;;;11.06;60.84
76201;BME280;64981;52.930;9.266;2024-03-02T08:44:17;100137.88;;;10.84;60.92
76201;BME280;64981;52.930;9.266;2024-03-02T08:46:43;100141.06;;;10.80;61.11
76201;BME280;64981;52.930;9.266;2024-03-02T08:49:09;100137.84;;;10.70;61.78
76201;BME280;64981;52.930;9.266;2024-03-02T08:51:35;100141.34;;;10.62;61.67
76201;BME280;64981;52.930;9.266;2024-03-02T08:54:01;100137.31;;;10.74;61.31
76201;BME280;64981;52.930;9.266;2024-03-02T08:56:26;100136.97;;;10.55;61.72
76201;BME280;64981;52.930;9.266;2024-03-02T08:58:53;100135.84;;;10.72;61.14
76201;BME280;64981;52.930;9.266;2024-03-02T09:01:18;100138.47;;;10.72;61.16
76201;BME280;64981;52.930;9.266;2024-03-02T09:03:45;100141.38;;;10.40;62.29
76201;BME280;64981;52.930;9.266;2024-03-02T09:06:12;100147.53;;;10.55;62.22
76201;BME280;64981;52.930;9.266;2024-03-02T09:08:38;100140.84;;;10.67;62.13
76201;BME280;64981;52.930;9.266;2024-03-02T09:11:05;100143.13;;;10.47;62.15
76201;BME280;64981;52.930;9.266;2024-03-02T09:13:33;100137.09;;;10.39;62.62
76201;BME280;64981;52.930;9.266;2024-03-02T09:15:58;100147.84;;;10.37;63.06
76201;BME280;64981;52.930;9.266;2024-03-02T09:18:24;100149.59;;;10.45;62.79
76201;BME280;64981;52.930;9.266;2024-03-02T09:20:49;100153.34;;;10.27;63.53
76201;BME280;64981;52.930;9.266;2024-03-02T09:23:15;100160.13;;;10.22;63.86
76201;BME280;64981;52.930;9.266;2024-03-02T09:25:40;100153.22;;;10.44;63.28
76201;BME280;64981;52.930;9.266;2024-03-02T09:28:06;100162.41;;;10.25;63.55
76201;BME280;64981;52.930;9.266;2024-03-02T09:30:33;100163.69;;;10.37;62.92
76201;BME280;64981;52.930;9.266;2024-03-02T09:32:58;100162.09;;;10.51;62.71
76201;BME280;64981;52.930;9.266;2024-03-02T09:35:24;100159.09;;;10.54;62.92
76201;BME280;64981;52.930;9.266;2024-03-02T09:37:50;100171.13;;;10.56;63.64
76201;BME280;64981;52.930;9.266;2024-03-02T09:40:15;100161.25;;;10.73;62.83
76201;BME280;64981;52.930;9.266;2024-03-02T09:42:42;100165.00;;;10.78;62.41
76201;BME280;64981;52.930;9.266;2024-03-02T09:45:09;100158.00;;;10.71;62.54
76201;BME280;64981;52.930;9.266;2024-03-02T09:47:35;100160.66;;;10.85;62.27
76201;BME280;64981;52.930;9.266;2024-03-02T09:50:01;100150.97;;;10.78;62.57
76201;BME280;64981;52.930;9.266;2024-03-02T09:52:27;100148.91;;;10.88;62.41
76201;BME280;64981;52.930;9.266;2024-03-02T09:54:52;100177.00;;;10.89;62.86
76201;BME280;64981;52.930;9.266;2024-03-02T09:57:18;100173.72;;;10.87;62.25
76201;BME280;64981;52.930;9.266;2024-03-02T09:59:43;100169.22;;;11.25;61.41
76201;BME280;64981;52.930;9.266;2024-03-02T10:02:10;100169.88;;;11.27;61.04
76201;BME280;64981;52.930;9.266;2024-03-02T10:04:36;100165.25;;;11.44;60.56
76201;BME280;64981;52.930;9.266;2024-03-02T10:07:21;100164.53;;;11.50;60.03
76201;BME280;64981;52.930;9.266;2024-03-02T10:09:48;100161.63;;;11.59;59.20
76201;BME280;64981;52.930;9.266;2024-03-02T10:12:16;100168.19;;;11.78;58.62
76201;BME280;64981;52.930;9.266;2024-03-02T10:14:42;100164.38;;;12.16;57.50
76201;BME280;64981;52.930;9.266;2024-03-02T10:17:10;100165.34;;;12.30;57.28
76201;BME280;64981;52.930;9.266;2024-03-02T10:19:37;100168.28;;;12.56;56.69
76201;BME280;64981;52.930;9.266;2024-03-02T10:22:07;100158.59;;;12.84;56.12
76201;BME280;64981;52.930;9.266;2024-03-02T10:24:39;100164.16;;;12.89;55.16
76201;BME280;64981;52.930;9.266;2024-03-02T10:27:16;100167.34;;;12.85;55.07
76201;BME280;64981;52.930;9.266;2024-03-02T10:29:45;100165.06;;;12.61;55.32
76201;BME280;64981;52.930;9.266;2024-03-02T10:32:12;100162.56;;;12.53;56.00
76201;BME280;64981;52.930;9.266;2024-03-02T10:34:43;100166.91;;;12.81;55.36
76201;BME280;64981;52.930;9.266;2024-03-02T10:37:11;100169.38;;;12.83;54.90
76201;BME280;64981;52.930;9.266;2024-03-02T10:39:38;100171.88;;;12.91;55.07
76201;BME280;64981;52.930;9.266;2024-03-02T10:42:06;100163.66;;;13.35;53.58
76201;BME280;64981;52.930;9.266;2024-03-02T10:44:33;100166.19;;;13.43;53.03
76201;BME280;64981;52.930;9.266;2024-03-02T10:47:04;100153.94;;;13.83;52.78
76201;BME280;64981;52.930;9.266;2024-03-02T10:49:31;100162.34;;;13.86;52.00
76201;BME280;64981;52.930;9.266;2024-03-02T10:51:58;100169.28;;;13.46;52.18
76201;BME280;64981;52.930;9.266;2024-03-02T10:54:24;100161.78;;;13.57;52.52
76201;BME280;64981;52.930;9.266;2024-03-02T10:56:54;100158.63;;;13.12;53.38
76201;BME280;64981;52.930;9.266;2024-03-02T10:59:28;100156.75;;;13.68;52.76
76201;BME280;64981;52.930;9.266;2024-03-02T11:02:00;100164.44;;;13.63;52.41
76201;BME280;64981;52.930;9.266;2024-03-02T11:04:28;100156.09;;;13.60;51.99
76201;BME280;64981;52.930;9.266;2024-03-02T11:07:00;100163.66;;;13.63;51.92
76201;BME280;64981;52.930;9.266;2024-03-02T11:09:29;100159.50;;;13.53;52.62
76201;BME280;64981;52.930;9.266;2024-03-02T11:12:03;100156.78;;;13.40;52.76
76201;BME280;64981;52.930;9.266;2024-03-02T11:14:31;100153.09;;;13.41;53.01
76201;BME280;64981;52.930;9.266;2024-03-02T11:17:01;100160.06;;;13.15;53.32
76201;BME280;64981;52.930;9.266;2024-03-02T11:19:30;100152.38;;;13.26;53.37
76201;BME280;64981;52.930;9.266;2024-03-02T11:21:57;100148.13;;;13.25;53.46
76201;BME280;64981;52.930;9.266;2024-03-02T11:24:31;100159.72;;;13.24;53.31
76201;BME280;64981;52.930;9.266;2024-03-02T11:27:00;100149.09;;;13.52;52.45
76201;BME280;64981;52.930;9.266;2024-03-02T11:29:43;100162.72;;;13.83;51.41
76201;BME280;64981;52.930;9.266;2024-03-02T11:32:20;100160.06;;;14.24;50.80
76201;BME280;64981;52.930;9.266;2024-03-02T11:34:48;100161.72;;;14.25;50.09
76201;BME280;64981;52.930;9.266;2024-03-02T11:37:16;100161.13;;;14.43;49.68
76201;BME280;64981;52.930;9.266;2024-03-02T11:39:44;100161.34;;;14.35;49.31
76201;BME280;64981;52.930;9.266;2024-03-02T11:42:11;100156.66;;;14.50;49.61
76201;BME280;64981;52.930;9.266;2024-03-02T11:44:42;100158.72;;;14.68;48.80
76201;BME280;64981;52.930;9.266;2024-03-02T11:47:11;100163.06;;;14.82;48.18
76201;BME280;64981;52.930;9.266;2024-03-02T11:49:41;100159.97;;;15.44;46.50
76201;BME280;64981;52.930;9.266;2024-03-02T11:52:09;100162.50;;;15.90;46.56
76201;BME280;64981;52.930;9.266;2024-03-02T11:54:37;100159.47;;;15.80;45.88
76201;BME280;64981;52.930;9.266;2024-03-02T11:57:13;100170.44;;;16.16;46.22
76201;BME280;64981;52.930;9.266;2024-03-02T11:59:40;100167.50;;;16.62;45.52
76201;BME280;64981;52.930;9.266;2024-03-02T12:02:06;100162.28;;;16.74;44.44
76201;BME280;64981;52.930;9.266;2024-03-02T12:04:32;100155.75;;;16.69;44.93
76201;BME280;64981;52.930;9.266;2024-03-02T12:06:59;100160.09;;;16.64;44.67
76201;BME280;64981;52.930;9.266;2024-03-02T12:09:27;100164.66;;;16.57;44.15
76201;BME280;64981;52.930;9.266;2024-03-02T12:12:03;100164.44;;;16.58;43.89
76201;BME280;64981;52.930;9.266;2024-03-02T12:14:30;100164.63;;;16.32;44.54
76201;BME280;64981;52.930;9.266;2024-03-02T12:16:56;100153.56;;;16.29;44.91
76201;BME280;64981;52.930;9.266;2024-03-02T12:19:25;100159.97;;;16.52;44.58
76201;BME280;64981;52.930;9.266;2024-03-02T12:21:52;100162.56;;;16.65;44.65
76201;BME280;64981;52.930;9.266;2024-03-02T12:24:18;100151.72;;;16.60;44.15
76201;BME280;64981;52.930;9.266;2024-03-02T12:26:44;100151.66;;;16.36;44.54
76201;BME280;64981;52.930;9.266;2024-03-02T12:29:11;100136.47;;;16.36;44.96
76201;BME280;64981;52.930;9.266;2024-03-02T12:31:37;100135.94;;;16.59;45.01
76201;BME280;64981;52.930;9.266;2024-03-02T12:34:04;100130.81;;;16.57;45.01
76201;BME280;64981;52.930;9.266;2024-03-02T12:36:30;100135.63;;;16.98;44.32
76201;BME280;64981;52.930;9.266;2024-03-02T12:38:55;100139.38;;;16.91;43.57
76201;BME280;64981;52.930;9.266;2024-03-02T12:41:21;100130.19;;;16.87;43.54
76201;BME280;64981;52.930;9.266;2024-03-02T12:43:46;100126.09;;;16.84;43.62
76201;BME280;64981;52.930;9.266;2024-03-02T12:46:12;100141.31;;;16.52;44.36
76201;BME280;64981;52.930;9.266;2024-03-02T12:48:38;100127.03;;;16.72;44.22
76201;BME280;64981;52.930;9.266;2024-03-02T12:51:06;100125.53;;;17.07;43.83
76201;BME280;64981;52.930;9.266;2024-03-02T12:53:32;100139.09;;;16.43;44.38
76201;BME280;64981;52.930;9.266;2024-03-02T12:55:58;100130.47;;;16.47;44.33